Time;durP1;ratioP1;P1;durP2;ratioP2;P2;SDS_P1;SDS_P2;PMS_P1;PMS_P2;Temp;Humidity;BMP_temperature;BMP_pressure;BME280_temperature;BME280_humidity;BME280_pressure;Samples;Min_cycle;Max_cycle;Signal;HPM_P1;HPM_P2
2021/12/15 00:02:02;;;;;;;41.17;16.65;;;9.50;94.30;;;;;;5047890;28;20044;-70
2021/12/15 00:04:28;;;;;;;39.85;16.67;;;9.50;94.30;;;;;;5048719;28;20041;-70
2021/12/15 00:06:54;;;;;;;47.90;18.38;;;9.50;94.30;;;;;;5048206;28;20033;-70
2021/12/15 00:09:19;;;;;;;47.03;17.55;;;9.50;94.40;;;;;;5047547;28;20624;-70
2021/12/15 00:11:46;;;;;;;42.78;17.95;;;9.50;94.40;;;;;;5048337;28;20134;-70
2021/12/15 00:14:15;;;;;;;56.05;18.35;;;9.50;94.30;;;;;;5051699;28;20061;-70
2021/12/15 00:16:41;;;;;;;48.63;17.27;;;9.60;94.40;;;;;;5035251;28;20049;-70
2021/12/15 00:19:07;;;;;;;42.83;16.92;;;9.60;94.40;;;;;;5035107;28;20041;-70
2021/12/15 00:21:34;;;;;;;42.17;17.48;;;9.60;94.40;;;;;;5052394;28;20037;-70
2021/12/15 00:24:00;;;;;;;34.40;16.50;;;9.60;94.30;;;;;;5051668;28;20048;-70
2021/12/15 00:26:26;;;;;;;45.47;16.42;;;9.60;94.30;;;;;;5052428;28;20135;-70
2021/12/15 00:28:52;;;;;;;37.55;15.80;;;9.60;94.40;;;;;;5032818;28;20128;-71
2021/12/15 00:31:19;;;;;;;45.30;17.25;;;9.60;94.30;;;;;;5051614;28;20417;-70
2021/12/15 00:33:45;;;;;;;47.17;18.20;;;9.60;94.30;;;;;;5050504;28;20667;-70
2021/12/15 00:36:12;;;;;;;41.95;15.98;;;9.60;94.10;;;;;;5051653;28;20049;-70
2021/12/15 00:38:38;;;;;;;34.58;16.25;;;9.60;94.30;;;;;;5050569;28;20479;-70
2021/12/15 00:41:05;;;;;;;36.15;16.55;;;9.60;94.30;;;;;;5051765;28;20053;-70
2021/12/15 00:43:32;;;;;;;38.17;16.05;;;9.60;94.20;;;;;;5050819;28;20040;-70
2021/12/15 00:45:58;;;;;;;34.95;17.30;;;9.60;94.20;;;;;;5051460;28;20120;-70
2021/12/15 00:48:23;;;;;;;38.08;17.77;;;9.60;94.20;;;;;;5051416;28;20529;-70
2021/12/15 00:50:49;;;;;;;40.95;17.55;;;9.60;94.20;;;;;;5050615;28;20044;-70
2021/12/15 00:53:15;;;;;;;40.33;16.95;;;9.70;94.20;;;;;;5050088;28;20044;-70
2021/12/15 00:55:43;;;;;;;47.72;17.63;;;9.60;94.10;;;;;;5051297;28;20110;-71
2021/12/15 00:58:09;;;;;;;41.45;19.15;;;9.60;94.10;;;;;;5050796;28;20111;-70
2021/12/15 01:00:38;;;;;;;43.60;20.08;;;9.70;94.10;;;;;;5051264;28;20045;-70
2021/12/15 01:03:05;;;;;;;45.45;18.88;;;9.70;94.10;;;;;;5050936;28;20136;-70
2021/12/15 01:05:35;;;;;;;38.60;18.90;;;9.70;94.10;;;;;;5051086;28;20571;-70
2021/12/15 01:08:05;;;;;;;36.78;18.33;;;9.70;94.20;;;;;;5050522;28;20045;-70
2021/12/15 01:10:51;;;;;;;40.85;19.17;;;9.70;94.20;;;;;;5050797;28;20045;-70
2021/12/15 01:21:30;;;;;;;44.70;21.98;;;9.60;94.10;;;;;;5049982;28;20045;-70
2021/12/15 01:23:55;;;;;;;39.90;20.35;;;9.70;94.10;;;;;;5049224;28;20040;-70
2021/12/15 01:26:21;;;;;;;48.75;21.85;;;9.70;94.10;;;;;;5051011;28;20476;-70
2021/12/15 01:28:47;;;;;;;41.05;20.38;;;9.70;94.10;;;;;;5032323;28;20049;-71
2021/12/15 01:31:13;;;;;;;45.97;22.15;;;9.70;94.10;;;;;;5050643;28;20409;-70
2021/12/15 01:33:40;;;;;;;43.53;23.38;;;9.70;94.00;;;;;;5032414;28;20037;-70
2021/12/15 01:36:08;;;;;;;48.35;21.70;;;9.70;94.20;;;;;;5049948;28;20057;-70
2021/12/15 01:38:36;;;;;;;50.15;22.17;;;9.70;94.20;;;;;;5050037;28;20064;-70
2021/12/15 01:41:04;;;;;;;46.10;21.48;;;9.70;94.10;;;;;;5050310;28;20095;-70
2021/12/15 01:43:49;;;;;;;52.83;22.27;;;9.70;94.10;;;;;;5050580;28;20045;-70
2021/12/15 01:49:18;;;;;;;51.63;23.25;;;9.60;94.30;;;;;;5040798;28;20507;-70
2021/12/15 01:51:44;;;;;;;46.65;22.83;;;9.70;94.30;;;;;;5050228;28;20064;-70
2021/12/15 01:54:12;;;;;;;47.25;22.38;;;9.60;94.10;;;;;;5032687;28;20040;-70
2021/12/15 01:56:38;;;;;;;51.70;24.58;;;9.60;94.40;;;;;;5048731;28;20064;-70
2021/12/15 01:59:05;;;;;;;42.75;24.00;;;9.60;94.30;;;;;;5049822;28;20520;-70
2021/12/15 02:01:32;;;;;;;47.17;24.00;;;9.60;94.30;;;;;;5049694;28;20037;-70
2021/12/15 02:03:58;;;;;;;48.28;24.67;;;9.60;94.20;;;;;;5049861;28;20119;-71
2021/12/15 02:06:25;;;;;;;43.95;22.15;;;9.60;94.20;;;;;;5050149;28;20776;-70
2021/12/15 02:08:51;;;;;;;48.28;22.58;;;9.60;94.40;;;;;;5047772;28;20711;-70
2021/12/15 02:11:17;;;;;;;50.40;23.52;;;9.60;94.30;;;;;;5050094;28;20080;-70
2021/12/15 02:13:43;;;;;;;46.17;22.05;;;9.60;94.20;;;;;;5049476;28;20037;-70
2021/12/15 02:16:09;;;;;;;44.53;25.25;;;9.60;94.20;;;;;;5049599;28;20045;-70
2021/12/15 02:18:41;;;;;;;52.88;24.60;;;9.60;94.10;;;;;;5049542;28;20520;-70
2021/12/15 02:21:17;;;;;;;46.88;25.80;;;9.60;94.20;;;;;;5047287;28;20044;-70
2021/12/15 02:23:48;;;;;;;47.85;25.67;;;9.60;94.20;;;;;;5049930;28;20674;-70
2021/12/15 02:26:20;;;;;;;50.95;25.52;;;9.60;94.10;;;;;;5048487;28;20044;-71
2021/12/15 02:28:49;;;;;;;40.80;23.17;;;9.60;94.10;;;;;;5048768;28;20075;-70
2021/12/15 02:31:35;;;;;;;53.97;26.27;;;9.60;94.00;;;;;;5049104;28;20545;-70
2021/12/15 02:34:19;;;;;;;46.97;24.23;;;9.70;94.00;;;;;;5047757;28;20093;-70
2021/12/15 02:39:57;;;;;;;50.13;27.48;;;9.60;93.90;;;;;;5046502;28;20053;-70
2021/12/15 02:42:26;;;;;;;63.78;30.05;;;9.60;94.00;;;;;;5046371;28;20487;-70
2021/12/15 02:44:52;;;;;;;60.00;29.17;;;9.60;93.90;;;;;;5035965;28;20135;-70
2021/12/15 02:47:30;;;;;;;57.35;29.45;;;9.50;93.90;;;;;;5047900;28;20124;-70
2021/12/15 02:49:57;;;;;;;58.38;28.58;;;9.50;93.80;;;;;;5048757;28;20044;-70
2021/12/15 02:52:25;;;;;;;53.83;29.80;;;9.50;93.90;;;;;;5049156;28;20041;-70
2021/12/15 02:54:50;;;;;;;55.15;27.45;;;9.50;93.90;;;;;;5048305;28;20049;-70
2021/12/15 02:57:17;;;;;;;55.13;28.67;;;9.50;93.90;;;;;;5047092;28;20045;-70
2021/12/15 02:59:54;;;;;;;50.65;26.30;;;9.50;93.90;;;;;;5048012;28;20063;-70
2021/12/15 03:15:42;;;;;;;50.55;26.17;;;9.40;93.90;;;;;;5049284;28;20048;-70
2021/12/15 03:18:18;;;;;;;53.45;27.92;;;9.30;93.80;;;;;;5048000;28;20057;-70
2021/12/15 03:20:48;;;;;;;51.92;25.58;;;9.40;93.90;;;;;;5048890;28;20072;-70
2021/12/15 03:23:22;;;;;;;53.13;24.05;;;9.40;93.90;;;;;;5048311;28;20448;-70
2021/12/15 03:25:48;;;;;;;46.53;25.25;;;9.40;93.90;;;;;;5047374;28;20045;-70
2021/12/15 03:33:56;;;;;;;54.50;27.45;;;9.40;93.80;;;;;;5046206;28;20053;-70
2021/12/15 03:36:39;;;;;;;45.97;25.25;;;9.40;93.80;;;;;;5044993;28;20056;-70
2021/12/15 03:39:08;;;;;;;48.67;25.95;;;9.40;93.80;;;;;;5044625;28;20076;-71
2021/12/15 03:41:34;;;;;;;53.63;26.02;;;9.40;93.80;;;;;;5030785;28;20131;-70
2021/12/15 03:44:00;;;;;;;59.10;26.45;;;9.40;93.80;;;;;;5044757;28;20068;-70
2021/12/15 03:46:26;;;;;;;49.13;25.65;;;9.30;93.80;;;;;;5031662;28;20053;-70
2021/12/15 03:48:52;;;;;;;55.00;26.73;;;9.30;93.90;;;;;;5051570;28;20086;-70
2021/12/15 03:51:18;;;;;;;52.47;26.17;;;9.30;93.80;;;;;;5033783;28;20037;-70
2021/12/15 03:53:43;;;;;;;55.28;27.25;;;9.30;93.80;;;;;;5052145;28;20048;-70
2021/12/15 03:56:11;;;;;;;54.97;27.98;;;9.30;93.80;;;;;;5051346;28;20057;-71
2021/12/15 03:58:37;;;;;;;53.83;26.88;;;9.30;93.80;;;;;;5052232;28;20041;-70
2021/12/15 04:01:07;;;;;;;54.20;26.73;;;9.30;93.80;;;;;;5051620;28;20431;-70
2021/12/15 04:03:37;;;;;;;49.25;26.05;;;9.30;93.80;;;;;;5051849;28;20068;-70
2021/12/15 04:06:07;;;;;;;55.22;26.75;;;9.30;93.80;;;;;;5052435;28;20052;-70
2021/12/15 04:08:34;;;;;;;53.83;25.40;;;9.20;93.80;;;;;;5051207;28;20406;-70
2021/12/15 04:11:02;;;;;;;47.55;26.08;;;9.30;93.80;;;;;;5050460;28;20203;-70
2021/12/15 04:13:27;;;;;;;50.67;27.85;;;9.30;93.80;;;;;;5033719;28;20047;-70
2021/12/15 04:15:56;;;;;;;60.28;28.38;;;9.20;93.70;;;;;;5051253;28;20045;-70
2021/12/15 04:18:27;;;;;;;55.30;29.23;;;9.20;93.80;;;;;;5051230;28;20540;-70
2021/12/15 04:20:54;;;;;;;51.33;26.73;;;9.10;93.70;;;;;;5051540;28;20044;-70
2021/12/15 04:23:20;;;;;;;53.80;27.92;;;9.20;93.70;;;;;;5050710;28;20041;-70
2021/12/15 04:25:50;;;;;;;56.63;28.27;;;9.10;93.50;;;;;;5046144;28;20440;-70
2021/12/15 04:28:17;;;;;;;51.40;26.75;;;9.10;93.80;;;;;;5049979;28;20049;-71
2021/12/15 04:30:48;;;;;;;58.35;27.13;;;9.10;93.80;;;;;;5049908;28;20071;-70
2021/12/15 04:33:32;;;;;;;55.33;27.08;;;9.10;93.90;;;;;;5051635;28;20044;-70
2021/12/15 04:35:59;;;;;;;45.88;26.65;;;9.10;93.90;;;;;;5044650;28;20049;-70
2021/12/15 04:38:27;;;;;;;47.03;25.67;;;9.10;93.90;;;;;;5051275;28;20057;-70
2021/12/15 04:40:54;;;;;;;46.30;25.67;;;9.10;93.90;;;;;;5050993;28;20064;-70
2021/12/15 04:43:21;;;;;;;53.92;27.77;;;9.10;93.90;;;;;;5051509;28;20051;-70
2021/12/15 04:45:46;;;;;;;63.25;28.83;;;9.10;93.90;;;;;;5049962;28;20056;-70
2021/12/15 04:48:14;;;;;;;53.38;26.98;;;9.10;93.80;;;;;;5051425;28;20509;-70
2021/12/15 04:50:40;;;;;;;48.40;25.88;;;9.10;93.80;;;;;;5048915;28;20033;-70
2021/12/15 04:53:07;;;;;;;50.10;26.70;;;9.10;93.80;;;;;;5051387;28;20056;-70
2021/12/15 04:55:35;;;;;;;50.78;25.85;;;9.20;93.80;;;;;;5048487;28;20037;-70
2021/12/15 04:58:02;;;;;;;52.55;25.92;;;9.10;93.80;;;;;;5048277;28;20060;-70
2021/12/15 05:00:31;;;;;;;57.15;26.15;;;9.10;93.90;;;;;;5049789;28;20056;-71
2021/12/15 05:02:59;;;;;;;51.67;24.70;;;9.10;93.90;;;;;;5050874;28;20080;-70
2021/12/15 05:05:27;;;;;;;49.45;23.85;;;9.10;94.20;;;;;;5050704;28;20037;-71
2021/12/15 05:07:54;;;;;;;53.95;22.83;;;9.20;94.10;;;;;;5051180;28;20049;-70
2021/12/15 05:10:22;;;;;;;52.85;23.63;;;9.20;94.00;;;;;;5048627;28;20037;-70
2021/12/15 05:12:49;;;;;;;50.10;25.05;;;9.20;94.10;;;;;;5044530;28;20498;-70
2021/12/15 05:15:15;;;;;;;50.60;21.67;;;9.20;94.20;;;;;;5050036;28;20045;-70
2021/12/15 05:17:41;;;;;;;50.38;21.98;;;9.30;94.20;;;;;;5050544;28;20053;-70
2021/12/15 05:20:09;;;;;;;46.97;21.83;;;9.30;94.20;;;;;;5048689;28;20555;-70
2021/12/15 05:22:35;;;;;;;57.25;24.33;;;9.30;94.20;;;;;;5051078;28;20123;-70
2021/12/15 05:25:02;;;;;;;47.58;23.00;;;9.40;94.10;;;;;;5050228;28;20048;-70
2021/12/15 05:27:28;;;;;;;40.13;21.63;;;9.40;94.10;;;;;;5047585;28;20202;-70
2021/12/15 05:29:54;;;;;;;51.85;24.10;;;9.40;94.10;;;;;;5033336;28;20129;-69
2021/12/15 05:32:22;;;;;;;45.58;22.63;;;9.40;94.10;;;;;;5049539;28;20037;-69
2021/12/15 05:34:50;;;;;;;49.90;21.85;;;9.40;94.20;;;;;;5050131;28;20077;-69
2021/12/15 05:37:17;;;;;;;52.70;21.80;;;9.50;94.20;;;;;;5049499;28;20505;-69
2021/12/15 05:39:45;;;;;;;46.97;21.02;;;9.50;94.20;;;;;;5050484;28;20124;-69
2021/12/15 05:42:11;;;;;;;52.03;22.48;;;9.50;94.10;;;;;;5050002;28;20135;-69
2021/12/15 05:44:37;;;;;;;44.55;21.52;;;9.60;94.10;;;;;;5049076;28;20110;-70
2021/12/15 05:47:04;;;;;;;53.72;21.38;;;9.60;94.10;;;;;;5050066;28;20519;-69
2021/12/15 05:49:30;;;;;;;48.60;23.65;;;9.60;94.10;;;;;;5050085;28;20045;-70
2021/12/15 05:51:57;;;;;;;57.55;20.77;;;9.60;94.10;;;;;;5048924;28;20037;-70
2021/12/15 05:54:23;;;;;;;52.88;22.20;;;9.60;94.00;;;;;;5050167;28;20045;-70
2021/12/15 05:56:49;;;;;;;50.80;20.55;;;9.60;94.00;;;;;;5049140;28;20049;-69
2021/12/15 05:59:15;;;;;;;42.30;21.38;;;9.60;94.00;;;;;;5046758;28;20394;-70
2021/12/15 06:01:42;;;;;;;41.70;20.95;;;9.60;94.00;;;;;;5049911;28;20048;-69
2021/12/15 06:04:08;;;;;;;47.25;21.50;;;9.60;94.00;;;;;;5049269;28;20037;-70
2021/12/15 06:06:34;;;;;;;48.05;22.10;;;9.50;93.80;;;;;;5047925;28;20056;-70
2021/12/15 06:09:01;;;;;;;44.08;21.02;;;9.40;94.00;;;;;;5048680;28;20053;-70
2021/12/15 06:11:27;;;;;;;45.55;22.00;;;9.40;94.10;;;;;;5047122;28;20069;-69
2021/12/15 06:13:53;;;;;;;47.33;22.17;;;9.40;94.10;;;;;;5041397;28;20153;-69
2021/12/15 06:16:21;;;;;;;48.75;21.02;;;9.30;93.90;;;;;;5032068;28;20048;-70
2021/12/15 06:18:48;;;;;;;52.55;20.77;;;9.30;94.20;;;;;;5048217;28;20055;-69
2021/12/15 06:21:15;;;;;;;44.95;22.52;;;9.40;94.20;;;;;;5029187;28;20045;-69
2021/12/15 06:23:41;;;;;;;44.30;21.85;;;9.40;94.10;;;;;;5030751;28;20071;-70
2021/12/15 06:26:07;;;;;;;50.42;21.88;;;9.40;94.00;;;;;;5049670;28;20564;-69
2021/12/15 06:28:34;;;;;;;43.53;20.55;;;9.30;94.20;;;;;;5048072;28;20132;-69
2021/12/15 06:31:01;;;;;;;39.33;20.85;;;9.40;94.20;;;;;;5049722;28;20140;-69
2021/12/15 06:33:28;;;;;;;41.25;19.58;;;9.40;94.20;;;;;;5048739;28;20036;-69
2021/12/15 06:35:58;;;;;;;40.10;20.50;;;9.40;94.20;;;;;;5049584;28;20049;-70
2021/12/15 06:38:28;;;;;;;51.13;22.60;;;9.40;94.10;;;;;;5048186;28;20465;-70
2021/12/15 06:40:55;;;;;;;51.60;22.05;;;9.40;94.10;;;;;;5045090;28;20049;-69
2021/12/15 06:43:21;;;;;;;47.97;22.67;;;9.40;94.10;;;;;;5042038;28;20097;-70
2021/12/15 06:45:59;;;;;;;44.20;21.52;;;9.40;94.20;;;;;;5049084;28;20049;-69
2021/12/15 06:59:23;;;;;;;37.97;18.98;;;9.40;94.10;;;;;;5047418;28;20037;-70
2021/12/15 07:01:51;;;;;;;39.95;17.90;;;9.50;94.00;;;;;;5047139;28;20393;-69
2021/12/15 07:04:18;;;;;;;35.85;16.88;;;9.50;94.10;;;;;;5047786;28;20501;-70
2021/12/15 07:06:45;;;;;;;39.35;15.80;;;9.50;94.10;;;;;;5047385;28;20099;-68
2021/12/15 07:09:11;;;;;;;30.63;15.00;;;9.50;94.10;;;;;;5043629;28;20084;-69
2021/12/15 07:11:37;;;;;;;30.10;14.40;;;9.50;94.10;;;;;;5028883;28;20033;-67
2021/12/15 07:14:02;;;;;;;32.55;14.82;;;9.50;94.10;;;;;;5048648;28;20052;-67
2021/12/15 07:16:30;;;;;;;25.60;14.02;;;9.50;94.00;;;;;;5048421;28;20053;-67
2021/12/15 07:21:51;;;;;;;28.92;12.75;;;9.60;94.10;;;;;;5041764;28;20045;-66
2021/12/15 07:24:16;;;;;;;23.25;12.27;;;9.60;94.00;;;;;;5055357;28;20049;-66
2021/12/15 07:26:42;;;;;;;30.25;11.55;;;9.60;93.90;;;;;;5055480;28;20098;-66
2021/12/15 07:29:08;;;;;;;26.65;11.38;;;9.60;93.90;;;;;;5055467;28;20401;-66
2021/12/15 07:31:33;;;;;;;23.30;10.45;;;9.60;93.80;;;;;;5055546;28;20041;-66
2021/12/15 07:33:59;;;;;;;24.42;10.45;;;9.60;93.80;;;;;;5055786;28;20053;-66
2021/12/15 07:36:25;;;;;;;22.40;10.57;;;9.60;93.70;;;;;;5055225;28;20072;-66
2021/12/15 07:38:52;;;;;;;23.08;10.63;;;9.60;93.70;;;;;;5054881;28;20094;-66
2021/12/15 07:41:28;;;;;;;28.98;11.30;;;9.60;93.70;;;;;;5051230;28;20327;-66
2021/12/15 07:43:58;;;;;;;32.45;13.32;;;9.60;93.60;;;;;;5054839;28;20138;-66
2021/12/15 07:46:24;;;;;;;33.25;13.63;;;9.60;93.70;;;;;;5044395;28;20081;-66
2021/12/15 07:48:50;;;;;;;26.90;13.95;;;9.60;93.60;;;;;;5037602;28;20077;-66
2021/12/15 07:51:16;;;;;;;37.75;14.45;;;9.50;93.60;;;;;;5054225;28;20045;-66
2021/12/15 07:53:43;;;;;;;37.92;16.13;;;9.50;93.60;;;;;;5055636;28;20056;-66
2021/12/15 07:56:09;;;;;;;33.13;15.13;;;9.50;93.60;;;;;;5054975;28;20048;-66
2021/12/15 07:58:35;;;;;;;38.25;16.52;;;9.50;93.60;;;;;;5054642;28;20036;-66
2021/12/15 08:01:03;;;;;;;37.15;16.73;;;9.50;93.50;;;;;;5054074;28;20106;-66
2021/12/15 08:03:30;;;;;;;29.95;17.25;;;9.50;93.60;;;;;;5052883;28;20580;-67
2021/12/15 08:05:57;;;;;;;32.40;16.10;;;9.50;93.40;;;;;;5054035;28;20045;-67
2021/12/15 08:08:23;;;;;;;35.55;18.15;;;9.50;93.60;;;;;;5054553;28;20566;-66
2021/12/15 08:10:53;;;;;;;36.85;17.90;;;9.50;93.60;;;;;;5053694;28;20127;-66
2021/12/15 08:13:19;;;;;;;33.35;17.33;;;9.60;93.60;;;;;;5053287;28;20102;-67
2021/12/15 08:15:45;;;;;;;36.25;17.45;;;9.60;93.50;;;;;;5054516;28;20132;-67
2021/12/15 08:18:10;;;;;;;40.35;18.77;;;9.50;93.40;;;;;;5054296;28;20187;-67
2021/12/15 08:20:37;;;;;;;34.95;16.15;;;9.50;93.40;;;;;;5054694;28;20556;-66
2021/12/15 08:23:05;;;;;;;33.38;17.30;;;9.50;93.30;;;;;;5043594;28;20101;-66
2021/12/15 08:25:31;;;;;;;35.05;16.38;;;9.40;93.30;;;;;;5054526;28;20049;-66
2021/12/15 08:27:58;;;;;;;34.20;17.52;;;9.40;93.30;;;;;;5051113;28;20520;-66
2021/12/15 08:30:28;;;;;;;37.10;16.35;;;9.40;93.30;;;;;;5042753;28;20046;-66
2021/12/15 08:32:56;;;;;;;38.10;16.73;;;9.40;93.30;;;;;;5051752;28;20041;-66
2021/12/15 08:35:26;;;;;;;32.00;16.25;;;9.40;93.30;;;;;;5070483;28;20485;-66
2021/12/15 08:37:52;;;;;;;34.20;16.35;;;9.40;93.30;;;;;;5071870;28;20095;-67
2021/12/15 08:40:19;;;;;;;34.70;17.27;;;9.30;93.30;;;;;;5072139;28;20044;-66
2021/12/15 08:42:45;;;;;;;35.03;16.48;;;9.30;93.30;;;;;;5071305;28;20056;-66
2021/12/15 08:45:11;;;;;;;39.67;18.63;;;9.30;93.40;;;;;;5070658;28;20056;-66
2021/12/15 08:47:37;;;;;;;37.53;16.45;;;9.30;93.40;;;;;;5052425;28;20128;-66
2021/12/15 08:50:07;;;;;;;28.40;16.27;;;9.30;93.30;;;;;;5050747;28;20052;-65
2021/12/15 08:52:34;;;;;;;39.72;15.07;;;9.30;93.50;;;;;;5040978;28;20048;-64
2021/12/15 08:54:59;;;;;;;36.10;16.63;;;9.40;93.50;;;;;;5045036;28;20045;-65
2021/12/15 08:57:25;;;;;;;32.60;16.00;;;9.40;93.60;;;;;;5047951;28;20418;-64
2021/12/15 08:59:51;;;;;;;30.50;15.80;;;9.40;93.50;;;;;;5032141;28;20060;-64
2021/12/15 09:02:17;;;;;;;37.00;15.52;;;9.50;93.50;;;;;;5050147;28;20512;-64
2021/12/15 09:04:42;;;;;;;37.33;16.98;;;9.50;93.50;;;;;;5050152;28;20128;-64
2021/12/15 09:07:08;;;;;;;36.15;16.73;;;9.50;93.50;;;;;;5050257;28;20544;-65
2021/12/15 09:09:34;;;;;;;32.90;17.25;;;9.60;93.50;;;;;;5039552;28;20134;-64
2021/12/15 09:12:02;;;;;;;32.58;15.45;;;9.60;93.50;;;;;;5049998;28;20184;-64
2021/12/15 09:14:27;;;;;;;34.88;15.82;;;9.60;93.50;;;;;;5048730;28;20451;-66
2021/12/15 09:16:58;;;;;;;29.45;15.18;;;9.60;93.40;;;;;;5047589;28;20139;-64
2021/12/15 09:19:24;;;;;;;35.05;15.90;;;9.60;93.30;;;;;;5036029;28;20098;-64
2021/12/15 09:21:52;;;;;;;37.35;17.02;;;9.60;93.50;;;;;;5040370;28;20120;-64
2021/12/15 09:24:19;;;;;;;33.80;18.15;;;9.60;93.40;;;;;;5048853;28;20055;-64
2021/12/15 09:26:46;;;;;;;39.08;15.90;;;9.60;93.20;;;;;;5049513;28;20051;-64
2021/12/15 09:29:11;;;;;;;35.40;15.23;;;9.60;93.40;;;;;;5049557;28;20053;-64
2021/12/15 09:31:38;;;;;;;34.67;16.13;;;9.60;93.20;;;;;;5045194;28;20037;-64
2021/12/15 09:34:05;;;;;;;38.92;16.25;;;9.60;93.30;;;;;;5048602;28;20754;-64
2021/12/15 09:36:32;;;;;;;38.22;17.30;;;9.60;93.30;;;;;;5048634;28;20056;-64
2021/12/15 09:39:06;;;;;;;38.30;16.27;;;9.60;93.20;;;;;;5047881;28;20720;-64
2021/12/15 09:41:32;;;;;;;33.15;16.35;;;9.60;93.20;;;;;;5049666;28;20545;-64
2021/12/15 09:44:04;;;;;;;35.17;13.45;;;9.60;93.20;;;;;;5047879;28;20078;-65
2021/12/15 09:46:37;;;;;;;40.75;14.63;;;9.60;93.10;;;;;;5048469;28;20049;-64
2021/12/15 09:57:30;;;;;;;28.73;14.77;;;9.60;93.20;;;;;;5048049;28;20501;-65
2021/12/15 10:19:51;;;;;;;24.50;11.38;;;9.80;93.00;;;;;;5032661;28;20038;-64
2021/12/15 10:25:11;;;;;;;22.17;11.77;;;9.90;93.00;;;;;;5049306;28;20057;-64
2021/12/15 10:27:43;;;;;;;25.23;11.13;;;9.90;93.10;;;;;;5046818;28;20138;-64
2021/12/15 10:30:14;;;;;;;25.40;10.48;;;9.90;92.90;;;;;;5048192;28;20048;-64
2021/12/15 10:32:43;;;;;;;21.80;9.65;;;9.90;92.90;;;;;;5040579;28;20072;-64
2021/12/15 10:35:18;;;;;;;24.48;9.80;;;9.90;92.60;;;;;;5048236;28;20123;-64
2021/12/15 10:38:19;;;;;;;18.42;8.48;;;9.90;92.70;;;;;;5047984;28;20037;-64
2021/12/15 10:40:59;;;;;;;24.77;8.57;;;10.00;92.50;;;;;;5048442;28;20098;-64
2021/12/15 10:43:32;;;;;;;19.40;7.65;;;10.00;92.50;;;;;;5047534;28;20455;-65
2021/12/15 10:46:03;;;;;;;19.23;7.68;;;10.00;92.40;;;;;;5047613;28;20064;-65
2021/12/15 10:48:37;;;;;;;19.05;8.10;;;10.00;92.20;;;;;;5047200;28;20033;-65
2021/12/15 10:51:24;;;;;;;18.33;7.10;;;10.10;91.80;;;;;;5041263;28;20052;-65
2021/12/15 10:53:52;;;;;;;20.35;6.82;;;10.10;91.90;;;;;;5046181;28;20051;-64
2021/12/15 10:56:22;;;;;;;20.42;7.25;;;10.10;91.90;;;;;;5046947;28;20126;-64
2021/12/15 10:58:51;;;;;;;16.48;7.30;;;10.10;91.70;;;;;;5046096;28;20040;-65
2021/12/15 11:01:38;;;;;;;14.70;7.30;;;10.10;91.60;;;;;;5048531;28;20051;-64
2021/12/15 11:04:21;;;;;;;16.88;6.43;;;10.20;91.50;;;;;;5048285;28;20044;-65
2021/12/15 11:07:17;;;;;;;13.85;5.82;;;10.20;91.50;;;;;;5047063;28;20139;-64
2021/12/15 11:09:47;;;;;;;17.65;6.13;;;10.20;91.30;;;;;;5042875;28;20123;-65
2021/12/15 11:12:15;;;;;;;15.25;5.43;;;10.20;91.40;;;;;;5037596;28;20409;-65
2021/12/15 11:14:47;;;;;;;10.57;4.47;;;10.30;91.40;;;;;;5046702;28;20091;-66
2021/12/15 11:17:39;;;;;;;15.50;5.28;;;10.30;91.00;;;;;;5043426;28;20045;-65
2021/12/15 11:20:07;;;;;;;18.88;5.20;;;10.30;90.80;;;;;;5048113;28;20678;-66
2021/12/15 11:23:00;;;;;;;12.05;5.25;;;10.30;91.00;;;;;;5040007;28;20063;-66
2021/12/15 11:25:40;;;;;;;16.25;5.20;;;10.40;91.00;;;;;;5047868;28;20051;-66
2021/12/15 11:28:06;;;;;;;13.98;5.05;;;10.30;90.90;;;;;;5041960;28;20033;-66
2021/12/15 11:30:37;;;;;;;9.73;5.65;;;10.30;91.20;;;;;;5048330;28;20090;-66
2021/12/15 11:33:25;;;;;;;15.93;5.22;;;10.40;91.20;;;;;;5048596;28;20131;-65
2021/12/15 11:36:04;;;;;;;15.65;6.03;;;10.40;91.10;;;;;;5046680;28;20087;-65
2021/12/15 11:38:35;;;;;;;12.57;5.65;;;10.50;91.20;;;;;;5044320;28;20044;-67
2021/12/15 11:41:15;;;;;;;10.38;4.28;;;10.50;91.20;;;;;;5048478;28;20072;-66
2021/12/15 11:43:42;;;;;;;10.02;2.78;;;10.50;91.00;;;;;;5046538;28;20149;-66
2021/12/15 11:46:16;;;;;;;9.20;2.95;;;10.50;90.20;;;;;;5045240;28;20060;-66
2021/12/15 11:48:44;;;;;;;14.30;3.03;;;10.50;90.00;;;;;;5047991;28;20073;-66
2021/12/15 11:51:10;;;;;;;8.80;2.53;;;10.50;89.30;;;;;;5048487;28;20048;-65
2021/12/15 11:53:40;;;;;;;15.15;2.97;;;10.50;88.60;;;;;;5046524;28;20045;-66
2021/12/15 11:56:29;;;;;;;10.27;2.70;;;10.50;88.40;;;;;;5046754;28;20052;-66
2021/12/15 11:59:21;;;;;;;8.27;2.65;;;10.50;88.20;;;;;;5046830;28;20082;-66
2021/12/15 12:01:52;;;;;;;9.02;2.35;;;10.50;88.00;;;;;;5034546;28;20052;-66
2021/12/15 12:04:37;;;;;;;8.82;2.03;;;10.50;87.40;;;;;;5029658;28;20093;-65
2021/12/15 12:07:18;;;;;;;8.52;1.85;;;10.40;87.70;;;;;;5045939;28;20044;-66
2021/12/15 12:09:47;;;;;;;6.95;1.67;;;10.40;87.50;;;;;;5050121;28;20048;-65
2021/12/15 12:12:16;;;;;;;8.18;1.73;;;10.30;86.70;;;;;;5044439;28;20037;-65
2021/12/15 12:14:51;;;;;;;8.73;1.77;;;10.30;87.10;;;;;;5050334;28;20090;-65
2021/12/15 12:17:26;;;;;;;10.70;2.10;;;10.30;86.70;;;;;;5041707;28;20045;-65
2021/12/15 12:19:55;;;;;;;8.35;2.28;;;10.30;86.80;;;;;;5048654;28;20052;-64
2021/12/15 12:22:22;;;;;;;8.80;2.45;;;10.30;87.10;;;;;;5043765;28;20076;-65
2021/12/15 12:24:52;;;;;;;7.78;1.95;;;10.30;87.20;;;;;;5051051;28;20037;-65
2021/12/15 12:27:20;;;;;;;8.27;1.77;;;10.30;87.00;;;;;;5046094;28;20076;-65
2021/12/15 12:29:45;;;;;;;11.00;3.65;;;10.30;87.10;;;;;;5050558;28;20052;-65
2021/12/15 12:32:11;;;;;;;8.95;1.98;;;10.20;87.10;;;;;;5046806;28;20045;-65
2021/12/15 12:34:42;;;;;;;6.88;2.10;;;10.20;87.20;;;;;;5049837;28;20134;-65
2021/12/15 12:37:11;;;;;;;15.95;2.65;;;10.20;87.10;;;;;;5049502;28;20127;-65
2021/12/15 12:39:38;;;;;;;9.23;2.00;;;10.30;87.20;;;;;;5049427;28;20501;-65
2021/12/15 12:42:05;;;;;;;5.38;2.10;;;10.20;86.80;;;;;;5050969;28;20051;-65
2021/12/15 12:44:38;;;;;;;3.72;2.13;;;10.20;87.00;;;;;;5050743;28;20128;-65
2021/12/15 12:47:18;;;;;;;8.27;1.90;;;10.20;87.00;;;;;;5049374;28;20049;-65
2021/12/15 12:50:04;;;;;;;7.03;1.83;;;10.20;86.80;;;;;;5049271;28;20045;-65
2021/12/15 13:00:54;;;;;;;4.57;1.35;;;10.30;85.90;;;;;;5048840;28;20565;-65
2021/12/15 13:03:36;;;;;;;8.60;1.40;;;10.30;86.00;;;;;;5046359;28;20063;-65
2021/12/15 13:06:04;;;;;;;;;;;10.30;85.70;;;;;;5039419;28;20076;-65
2021/12/15 13:08:34;;;;;;;3.80;1.27;;;10.30;85.50;;;;;;5050246;28;19974;-65
2021/12/15 13:11:17;;;;;;;5.97;2.15;;;10.20;86.00;;;;;;5049129;28;20041;-65
2021/12/15 13:13:55;;;;;;;6.32;2.50;;;10.30;85.50;;;;;;5050428;28;20087;-65
2021/12/15 13:16:31;;;;;;;6.25;1.60;;;10.30;85.30;;;;;;5049344;28;20131;-65
2021/12/15 13:19:01;;;;;;;6.60;1.60;;;10.40;85.60;;;;;;5048178;28;20040;-65
2021/12/15 13:21:52;;;;;;;6.43;1.40;;;10.20;85.00;;;;;;5050030;28;20041;-65
2021/12/15 13:30:39;;;;;;;6.85;1.48;;;10.20;84.70;;;;;;5037203;28;20041;-64
2021/12/15 13:33:15;;;;;;;4.35;1.05;;;10.20;84.60;;;;;;5049812;28;20045;-65
2021/12/15 13:35:51;;;;;;;7.60;1.40;;;10.20;84.40;;;;;;5047553;28;20047;-64
2021/12/15 13:38:31;;;;;;;5.13;1.38;;;10.20;85.10;;;;;;5025304;28;20049;-64
2021/12/15 13:41:10;;;;;;;3.38;1.05;;;10.20;85.30;;;;;;5049447;28;20049;-65
2021/12/15 13:43:41;;;;;;;5.55;1.23;;;10.20;85.10;;;;;;5047956;28;20191;-65
2021/12/15 13:46:44;;;;;;;4.25;1.20;;;10.20;85.20;;;;;;5047482;28;20051;-66
2021/12/15 13:49:40;;;;;;;7.53;1.30;;;10.30;85.00;;;;;;5001145;28;20053;-65
2021/12/15 13:52:19;;;;;;;6.03;1.15;;;10.10;85.10;;;;;;5032514;28;20052;-66
2021/12/15 13:54:44;;;;;;;8.05;1.40;;;10.10;85.20;;;;;;5047965;28;20131;-65
2021/12/15 13:57:13;;;;;;;3.35;1.10;;;10.10;85.10;;;;;;5047920;28;20132;-66
2021/12/15 13:59:40;;;;;;;2.97;1.13;;;10.10;85.00;;;;;;5047804;28;20051;-66
2021/12/15 14:02:19;;;;;;;5.20;1.20;;;10.10;84.50;;;;;;5048943;28;20049;-66
2021/12/15 14:04:54;;;;;;;3.83;1.23;;;10.10;84.40;;;;;;5048673;28;20296;-65
2021/12/15 14:07:41;;;;;;;7.15;1.98;;;10.10;84.90;;;;;;5047945;28;20467;-66
2021/12/15 14:10:12;;;;;;;4.05;1.08;;;10.10;84.90;;;;;;5039081;28;20044;-66
2021/12/15 14:12:47;;;;;;;5.47;2.08;;;10.10;85.00;;;;;;5048290;28;20044;-66
2021/12/15 14:15:25;;;;;;;4.57;1.52;;;10.00;85.00;;;;;;5047735;28;20418;-66
2021/12/15 14:18:09;;;;;;;5.72;1.08;;;10.00;85.00;;;;;;5048905;28;20561;-66
2021/12/15 14:20:43;;;;;;;5.60;1.10;;;10.00;84.90;;;;;;5049272;28;20056;-66
2021/12/15 14:23:13;;;;;;;3.22;1.27;;;10.00;85.30;;;;;;5049402;28;20530;-66
2021/12/15 14:25:43;;;;;;;6.57;2.63;;;10.00;85.10;;;;;;5047321;28;20513;-65